Pagrindinis puslapis
METAR-TAF:

METAR-TAF

Oro uostai :

Hobbs, Naujoji Meksika, Jungtinės Amerikos Valstijos

platuma: 32-41N, ilguma: 103-13W, Aukštis: 1115 m

Dabartinis oras

Ataskaita buvo paskelbta 22 minutes, ne 09:15 UTC
Vėjas 5 kt iš Rytų/Šiaurės Rytų
Temperatūra 15°C
Drėgmė 55%
Slėgis 1022 hPa
Matomumas: 16.1 km
Išsisklaidę debesys ne aukštis 4500 ft
Su prošvaistėmis ne aukštis 5000 ft
Apsiniaukę ne aukštis 6000 ft

METAR: KHOB 020915Z AUTO 07005KT 10SM SCT045 BKN050 OVC060 15/06 A3017 RMK AO2

Laikas: 03:37 (09:37 UTC)

Prognozė

Ataskaita buvo paskelbta 4 valandos ir 15 minutes, ne 05:22 UTC
Prognozė galioja nuo 02 metu 06 UTC su 03 metu 06 UTC
Vėjas 11 kt iš Rytų
Matomumas: 10 km
Mažai debesys ne aukštis 15000 ft

TAF: KHOB 020522Z 0206/0306 10011KT P6SM FEW150

Orai ataskaitas ir orų prognozės (METAR, TAF).

turimą stotys yra geltonos ir raudonos taškus žemėlapyje.

Perkelti pele per norėdami pamatyti stoties vardą.

Tada spustelėkite, norėdami matyti oro stebėjimo ir prognozės.

Norėdami pakeisti žemėlapį: spustelėkite ant žalios mygtukų su juodo kryžiaus žemyn,; žalią mygtuką su brūkšneliu, jei norite nutolinti; arba žalių rodyklių gretimoms žemėlapius.


METAR-TAF: